Time;durP1;ratioP1;P1;durP2;ratioP2;P2;SDS_P1;SDS_P2;PMS_P1;PMS_P2;Temp;Humidity;BMP_temperature;BMP_pressure;BME280_temperature;BME280_humidity;BME280_pressure;Samples;Min_cycle;Max_cycle;Signal;HPM_P1;HPM_P2
2023/05/24 05:01:16;;;;;;;7.95;3.08;;;12.40;98.50;;;;;;5859522;23;20035;-70
2023/05/24 05:03:43;;;;;;;9.40;3.30;;;12.40;98.10;;;;;;4906381;29;20032;-77
2023/05/24 05:06:09;;;;;;;11.13;3.50;;;12.40;98.30;;;;;;4903883;29;20025;-72
2023/05/24 05:08:35;;;;;;;9.88;3.35;;;12.40;98.20;;;;;;4894845;29;20071;-75
2023/05/24 05:11:01;;;;;;;12.27;3.78;;;12.40;98.20;;;;;;4882860;29;20101;-73
2023/05/24 05:13:27;;;;;;;10.13;3.60;;;12.40;98.10;;;;;;4891166;29;20036;-74
2023/05/24 05:15:53;;;;;;;8.30;3.60;;;12.40;98.20;;;;;;4890771;29;20029;-72
2023/05/24 05:18:18;;;;;;;12.77;3.90;;;12.50;98.30;;;;;;4875419;29;20100;-73
2023/05/24 05:20:44;;;;;;;7.50;3.40;;;12.50;98.00;;;;;;4907233;29;20044;-73
2023/05/24 05:23:10;;;;;;;10.23;3.78;;;12.60;97.90;;;;;;4910170;29;20036;-72
2023/05/24 05:25:36;;;;;;;13.02;3.72;;;12.60;98.00;;;;;;4905706;29;20028;-71
2023/05/24 05:28:01;;;;;;;9.43;3.55;;;12.60;98.00;;;;;;4879185;29;20043;-74
2023/05/24 05:30:27;;;;;;;12.90;4.10;;;12.60;97.90;;;;;;4897141;29;20319;-73
2023/05/24 05:32:53;;;;;;;7.90;3.65;;;12.70;97.70;;;;;;4890761;29;20041;-74
2023/05/24 05:35:19;;;;;;;8.95;3.47;;;12.80;97.50;;;;;;4905750;29;20099;-74
2023/05/24 05:37:44;;;;;;;9.75;3.47;;;12.90;97.60;;;;;;4900638;29;20017;-72
2023/05/24 05:40:10;;;;;;;12.45;4.35;;;12.90;97.40;;;;;;4890218;29;20040;-73
2023/05/24 05:42:36;;;;;;;14.05;4.15;;;13.00;97.50;;;;;;4897425;29;20037;-71
2023/05/24 05:45:02;;;;;;;11.30;3.67;;;13.00;97.30;;;;;;4906443;29;20025;-72
2023/05/24 05:47:31;;;;;;;10.63;3.55;;;13.10;97.10;;;;;;4895563;29;20028;-71
2023/05/24 05:49:56;;;;;;;;;;;13.20;96.50;;;;;;4895593;29;20427;-73
2023/05/24 05:52:22;;;;;;;12.30;3.80;;;13.30;96.50;;;;;;4890620;29;19911;-71
2023/05/24 05:54:48;;;;;;;11.10;3.60;;;13.30;96.30;;;;;;4889967;29;20037;-72
2023/05/24 05:57:15;;;;;;;10.18;3.30;;;13.40;96.00;;;;;;4893827;29;20254;-74
2023/05/24 05:59:46;;;;;;;9.35;3.40;;;13.30;95.60;;;;;;4904094;29;20033;-73
2023/05/24 06:02:12;;;;;;;9.65;3.20;;;13.30;95.60;;;;;;4895821;29;20068;-74
2023/05/24 06:04:39;;;;;;;11.27;3.40;;;13.40;95.70;;;;;;4909154;29;20033;-75
2023/05/24 06:07:05;;;;;;;11.55;3.33;;;13.30;95.50;;;;;;4908780;29;20051;-72
2023/05/24 06:09:30;;;;;;;10.07;3.80;;;13.40;95.80;;;;;;4908857;29;20314;-73
2023/05/24 06:11:56;;;;;;;9.48;3.65;;;13.50;95.50;;;;;;4897251;29;20052;-72
2023/05/24 06:14:23;;;;;;;9.43;3.30;;;13.50;95.50;;;;;;4890068;29;20032;-73
2023/05/24 06:16:51;;;;;;;10.25;3.40;;;13.60;95.40;;;;;;4889783;29;20032;-74
2023/05/24 06:19:17;;;;;;;13.07;3.50;;;13.80;95.10;;;;;;4896531;29;20113;-74
2023/05/24 06:21:48;;;;;;;11.68;3.50;;;13.90;95.10;;;;;;4873639;29;20101;-71
2023/05/24 06:24:16;;;;;;;8.27;3.03;;;14.10;94.90;;;;;;4873614;29;20318;-71
2023/05/24 06:26:42;;;;;;;13.63;3.78;;;14.20;94.50;;;;;;4873349;29;20211;-73
2023/05/24 06:29:08;;;;;;;9.63;3.25;;;14.30;94.40;;;;;;4889755;29;20028;-71
2023/05/24 06:31:34;;;;;;;11.45;3.22;;;14.30;94.10;;;;;;4873216;29;20049;-73
2023/05/24 06:34:00;;;;;;;15.20;4.60;;;14.30;94.00;;;;;;4896359;29;20275;-73
2023/05/24 06:36:26;;;;;;;16.48;4.38;;;14.50;94.00;;;;;;4903041;29;20299;-73
2023/05/24 06:38:51;;;;;;;8.95;3.15;;;14.50;94.00;;;;;;4889364;29;20041;-73
2023/05/24 06:41:17;;;;;;;11.63;3.50;;;14.40;93.90;;;;;;4889816;29;20052;-73
2023/05/24 06:43:43;;;;;;;13.55;3.80;;;14.40;94.00;;;;;;4889577;29;20105;-73
2023/05/24 06:46:08;;;;;;;12.30;3.70;;;14.50;93.90;;;;;;4889133;29;20048;-74
2023/05/24 06:48:37;;;;;;;10.63;4.15;;;14.40;93.80;;;;;;4889609;29;20223;-71
2023/05/24 06:51:02;;;;;;;;;;;14.40;94.30;;;;;;4902256;29;20033;-71
2023/05/24 06:53:31;;;;;;;7.13;2.95;;;14.40;94.20;;;;;;4898958;29;19908;-70
2023/05/24 06:55:57;;;;;;;;;;;14.30;94.00;;;;;;4908560;29;20033;-70
2023/05/24 06:58:24;;;;;;;13.88;4.03;;;14.30;94.10;;;;;;4891674;29;19950;-71
2023/05/24 07:00:50;;;;;;;12.25;3.60;;;14.20;94.10;;;;;;4893293;29;20341;-71
2023/05/24 07:03:16;;;;;;;10.63;3.47;;;14.10;94.20;;;;;;4889179;29;20037;-71
2023/05/24 07:05:42;;;;;;;9.32;3.60;;;14.00;94.10;;;;;;4889354;29;20048;-70
2023/05/24 07:08:08;;;;;;;14.80;3.63;;;13.90;94.10;;;;;;4895136;29;20052;-71
2023/05/24 07:10:33;;;;;;;10.00;4.40;;;13.90;94.40;;;;;;4907909;29;20084;-70
2023/05/24 07:13:00;;;;;;;11.63;3.65;;;13.80;94.50;;;;;;4901065;29;20044;-71
2023/05/24 07:15:29;;;;;;;8.20;3.53;;;13.70;94.20;;;;;;4889076;29;20033;-71
2023/05/24 07:17:55;;;;;;;10.60;3.72;;;13.70;94.40;;;;;;4901214;29;20247;-71
2023/05/24 07:20:20;;;;;;;12.18;3.55;;;13.60;94.30;;;;;;4905915;29;20036;-71
2023/05/24 07:22:46;;;;;;;10.18;3.00;;;13.70;94.50;;;;;;4891868;29;20043;-71
2023/05/24 07:25:12;;;;;;;9.60;2.83;;;13.80;94.30;;;;;;4872064;29;20029;-71
2023/05/24 07:27:38;;;;;;;9.10;3.20;;;13.80;94.20;;;;;;4888870;29;20089;-71
2023/05/24 07:30:07;;;;;;;8.68;3.03;;;13.90;94.20;;;;;;4889317;29;20052;-70
2023/05/24 07:32:32;;;;;;;13.68;3.50;;;13.90;93.90;;;;;;4889053;29;20036;-72
2023/05/24 07:34:58;;;;;;;9.57;3.45;;;14.00;94.10;;;;;;4895548;29;20084;-73
2023/05/24 07:37:24;;;;;;;9.68;3.65;;;14.10;94.10;;;;;;4891713;29;20041;-70
2023/05/24 07:39:50;;;;;;;9.27;3.15;;;14.10;94.20;;;;;;4891958;29;20174;-71
2023/05/24 07:42:16;;;;;;;9.50;3.35;;;14.20;94.20;;;;;;4891541;29;20033;-70
2023/05/24 07:44:42;;;;;;;9.80;3.55;;;14.40;94.10;;;;;;4891133;29;20034;-71
2023/05/24 07:47:08;;;;;;;11.60;3.88;;;14.50;93.60;;;;;;4888779;29;20091;-72
2023/05/24 07:49:33;;;;;;;11.02;3.58;;;14.60;93.60;;;;;;4888593;29;20307;-70
2023/05/24 07:51:59;;;;;;;8.68;3.20;;;14.80;93.50;;;;;;4888392;29;20041;-71
2023/05/24 07:54:25;;;;;;;33.20;5.10;;;15.10;93.20;;;;;;4888537;29;20041;-71
2023/05/24 07:56:51;;;;;;;14.35;3.72;;;15.30;92.90;;;;;;4888974;29;20059;-74
2023/05/24 07:59:17;;;;;;;14.55;3.90;;;15.30;92.50;;;;;;4901500;29;20041;-75
2023/05/24 08:01:43;;;;;;;13.18;3.47;;;15.50;92.10;;;;;;4906831;29;20067;-76
2023/05/24 08:04:09;;;;;;;11.38;3.50;;;15.60;91.90;;;;;;4906819;29;20036;-73
2023/05/24 08:06:35;;;;;;;8.55;3.05;;;15.70;92.00;;;;;;4890546;29;20230;-75
2023/05/24 08:09:06;;;;;;;11.68;3.20;;;15.60;91.70;;;;;;4871833;29;20374;-76
2023/05/24 08:11:32;;;;;;;12.35;4.38;;;15.70;92.30;;;;;;4907049;29;20105;-74
2023/05/24 08:13:58;;;;;;;10.70;4.18;;;15.80;91.60;;;;;;4893815;29;20210;-74
2023/05/24 08:16:23;;;;;;;15.13;3.38;;;15.80;91.40;;;;;;4888549;29;20244;-70
2023/05/24 08:18:49;;;;;;;11.52;3.03;;;15.80;91.60;;;;;;4893540;29;20039;-71
2023/05/24 08:21:15;;;;;;;10.43;3.63;;;15.90;91.50;;;;;;4889731;29;20060;-76
2023/05/24 08:23:41;;;;;;;10.52;3.45;;;15.70;91.40;;;;;;4888511;29;20048;-74
2023/05/24 08:26:07;;;;;;;14.52;4.10;;;15.70;91.70;;;;;;4871543;29;20045;-74
2023/05/24 08:28:34;;;;;;;12.20;4.20;;;15.80;91.60;;;;;;4888719;29;20033;-71
2023/05/24 08:31:00;;;;;;;9.90;3.58;;;15.70;92.00;;;;;;4887711;29;20072;-70
2023/05/24 08:33:26;;;;;;;10.27;4.22;;;15.80;92.00;;;;;;4890212;29;20100;-71
2023/05/24 08:35:51;;;;;;;14.18;3.65;;;15.80;91.90;;;;;;4908451;29;20028;-72
2023/05/24 08:38:17;;;;;;;12.85;3.45;;;15.70;91.30;;;;;;4910103;29;20087;-71
2023/05/24 08:40:43;;;;;;;9.90;3.17;;;15.50;91.20;;;;;;4893546;29;20041;-72
2023/05/24 08:43:12;;;;;;;11.38;3.65;;;15.40;91.50;;;;;;4909888;29;20020;-72
2023/05/24 08:45:38;;;;;;;11.52;3.80;;;15.40;91.80;;;;;;4910572;29;20072;-70
2023/05/24 08:48:05;;;;;;;12.93;3.35;;;15.50;92.00;;;;;;4910438;29;20306;-70
2023/05/24 08:50:32;;;;;;;10.30;3.00;;;15.70;91.90;;;;;;4910833;29;20040;-71
2023/05/24 08:53:01;;;;;;;9.38;3.72;;;16.00;91.60;;;;;;4874918;29;20104;-71
2023/05/24 08:55:28;;;;;;;13.88;3.83;;;16.10;91.60;;;;;;4891722;29;20041;-71
2023/05/24 08:57:55;;;;;;;9.30;3.30;;;16.20;91.00;;;;;;4895324;29;20222;-71
2023/05/24 09:00:21;;;;;;;21.05;4.55;;;16.10;90.80;;;;;;4906141;29;20036;-70
2023/05/24 09:02:48;;;;;;;11.65;3.67;;;16.00;90.90;;;;;;4888066;29;20175;-71
2023/05/24 09:05:20;;;;;;;9.93;4.05;;;16.10;90.60;;;;;;4922776;29;20052;-72
2023/05/24 09:07:48;;;;;;;10.13;3.60;;;16.10;90.80;;;;;;4913328;29;20037;-71
2023/05/24 09:10:14;;;;;;;10.45;3.33;;;16.00;90.70;;;;;;4919803;29;20027;-71
2023/05/24 09:12:46;;;;;;;11.38;3.70;;;16.00;90.60;;;;;;4926620;29;20328;-71
2023/05/24 09:15:12;;;;;;;16.05;4.20;;;16.00;90.80;;;;;;4909718;29;20032;-72
2023/05/24 09:17:39;;;;;;;9.40;3.65;;;15.90;90.90;;;;;;4893560;29;20083;-70
2023/05/24 09:20:09;;;;;;;10.30;3.92;;;16.00;90.80;;;;;;4907691;29;20042;-71
2023/05/24 09:22:36;;;;;;;12.63;3.70;;;15.90;90.80;;;;;;4929195;29;20415;-73
2023/05/24 09:25:03;;;;;;;11.93;3.42;;;15.70;90.90;;;;;;4928590;29;20063;-72
2023/05/24 09:27:31;;;;;;;14.73;3.42;;;15.80;90.80;;;;;;4928779;29;20124;-72
2023/05/24 09:29:57;;;;;;;11.15;3.67;;;15.90;91.10;;;;;;4928850;29;20061;-72
2023/05/24 09:32:23;;;;;;;15.05;3.30;;;16.00;91.00;;;;;;4927917;29;20040;-72
2023/05/24 09:34:53;;;;;;;12.68;3.47;;;16.10;90.80;;;;;;4920393;29;20203;-72
2023/05/24 09:37:23;;;;;;;13.05;3.53;;;16.10;90.60;;;;;;4909071;29;20055;-71
2023/05/24 09:39:50;;;;;;;12.68;3.35;;;16.00;90.70;;;;;;4909839;29;20195;-70
2023/05/24 09:42:19;;;;;;;11.90;3.38;;;16.10;90.40;;;;;;4909304;29;20028;-71
2023/05/24 09:45:09;;;;;;;17.17;4.07;;;16.10;90.30;;;;;;4892812;29;20035;-71
2023/05/24 09:47:40;;;;;;;11.10;3.40;;;15.90;90.70;;;;;;4909200;29;20036;-70
2023/05/24 09:50:14;;;;;;;13.63;4.93;;;16.00;90.70;;;;;;4887139;29;20427;-74
2023/05/24 09:52:41;;;;;;;11.85;3.38;;;16.00;90.50;;;;;;4911467;29;20341;-72
2023/05/24 09:55:14;;;;;;;10.50;3.90;;;15.80;90.80;;;;;;4928102;29;20038;-70
2023/05/24 09:57:42;;;;;;;13.13;4.35;;;15.70;91.00;;;;;;4925988;29;20192;-73
2023/05/24 10:00:16;;;;;;;11.88;3.92;;;15.70;91.30;;;;;;4909221;29;20039;-70
2023/05/24 10:02:45;;;;;;;33.20;4.75;;;15.60;91.30;;;;;;4897060;29;20108;-71
2023/05/24 10:05:12;;;;;;;10.27;3.78;;;15.60;91.40;;;;;;4889764;29;20056;-73
2023/05/24 10:07:41;;;;;;;10.00;3.75;;;15.60;91.30;;;;;;4890484;29;20053;-71
2023/05/24 10:10:09;;;;;;;9.98;3.75;;;15.50;91.10;;;;;;4889695;29;20063;-71
2023/05/24 10:12:35;;;;;;;9.23;3.42;;;15.40;91.00;;;;;;4890628;29;20025;-70
2023/05/24 10:15:02;;;;;;;10.15;3.58;;;15.20;91.30;;;;;;4889909;29;20081;-72
2023/05/24 10:17:28;;;;;;;9.82;3.88;;;15.20;91.40;;;;;;4890092;29;20281;-71
2023/05/24 10:19:54;;;;;;;10.02;3.90;;;15.10;91.50;;;;;;4880495;29;20053;-70
2023/05/24 10:22:22;;;;;;;10.20;3.28;;;15.00;91.70;;;;;;4889681;29;20112;-70
2023/05/24 10:24:49;;;;;;;;;;;15.10;91.80;;;;;;4896663;29;20379;-71
2023/05/24 10:27:18;;;;;;;12.40;4.15;;;15.10;91.80;;;;;;4908329;29;20029;-72
2023/05/24 10:30:09;;;;;;;14.43;4.07;;;15.10;91.90;;;;;;4908721;29;20104;-69
2023/05/24 10:32:37;;;;;;;14.00;4.13;;;15.10;91.60;;;;;;4893023;29;20357;-71
2023/05/24 10:35:06;;;;;;;12.52;4.07;;;15.00;91.50;;;;;;4896552;29;20017;-71
2023/05/24 10:37:33;;;;;;;12.57;4.47;;;15.00;91.70;;;;;;4889987;29;20450;-73
2023/05/24 10:39:59;;;;;;;12.82;3.75;;;15.00;91.60;;;;;;4873348;29;20032;-71
2023/05/24 10:42:25;;;;;;;9.57;3.67;;;15.10;91.50;;;;;;4889262;29;20096;-71
2023/05/24 10:44:51;;;;;;;9.27;3.22;;;15.10;91.20;;;;;;4873249;29;20040;-70
2023/05/24 10:47:19;;;;;;;10.90;3.65;;;15.00;91.10;;;;;;4901670;29;20040;-70
2023/05/24 10:49:51;;;;;;;13.48;4.40;;;15.10;91.20;;;;;;4890138;29;20033;-70
2023/05/24 10:52:17;;;;;;;16.65;4.03;;;15.30;91.10;;;;;;4889505;29;20044;-70
2023/05/24 10:55:04;;;;;;;10.80;3.60;;;15.30;90.70;;;;;;4889356;29;20241;-70
2023/05/24 10:57:32;;;;;;;14.02;4.47;;;15.40;90.70;;;;;;4891056;29;20044;-71
2023/05/24 11:00:17;;;;;;;;;;;15.70;90.80;;;;;;4908455;29;20091;-72
2023/05/24 11:02:43;;;;;;;14.35;4.47;;;15.80;90.60;;;;;;4907701;29;19927;-71
2023/05/24 11:05:11;;;;;;;9.82;3.85;;;16.10;89.50;;;;;;4891162;29;20028;-73
2023/05/24 11:07:43;;;;;;;8.52;3.30;;;16.30;88.10;;;;;;4907749;29;20036;-72
2023/05/24 11:10:15;;;;;;;11.65;4.45;;;16.60;88.20;;;;;;4897549;29;20032;-73
2023/05/24 11:12:41;;;;;;;12.18;3.50;;;16.90;87.40;;;;;;4889415;29;20032;-73
2023/05/24 11:15:10;;;;;;;10.93;3.63;;;17.00;86.10;;;;;;4888661;29;20208;-74
2023/05/24 11:18:04;;;;;;;14.43;5.70;;;17.20;85.60;;;;;;4888656;29;20044;-73
2023/05/24 11:20:30;;;;;;;10.88;3.53;;;17.40;84.40;;;;;;4895920;29;20327;-71
2023/05/24 11:22:58;;;;;;;12.13;3.85;;;17.70;84.60;;;;;;4889178;29;20088;-70
2023/05/24 11:25:25;;;;;;;11.13;3.40;;;17.90;84.30;;;;;;4872038;29;20260;-70
2023/05/24 11:27:52;;;;;;;11.57;3.30;;;18.20;83.10;;;;;;4889117;29;20037;-70
2023/05/24 11:30:19;;;;;;;9.63;3.28;;;18.20;81.40;;;;;;4888692;29;20029;-71
2023/05/24 11:32:48;;;;;;;8.38;2.80;;;18.30;80.90;;;;;;4889133;29;20041;-70
2023/05/24 11:35:14;;;;;;;10.65;3.15;;;18.50;78.00;;;;;;4894952;29;20092;-72
2023/05/24 11:37:41;;;;;;;9.82;3.28;;;18.30;77.80;;;;;;4889043;29;20060;-70
2023/05/24 11:40:11;;;;;;;17.02;3.65;;;18.20;78.00;;;;;;4888508;29;20021;-69
2023/05/24 11:42:38;;;;;;;10.40;2.95;;;18.50;78.30;;;;;;4888730;29;20342;-70
2023/05/24 11:45:08;;;;;;;13.50;3.13;;;18.60;77.90;;;;;;4888595;29;20323;-72
2023/05/24 11:47:37;;;;;;;10.23;3.35;;;18.60;77.70;;;;;;4888915;29;20060;-70
2023/05/24 11:50:04;;;;;;;11.60;3.28;;;19.00;77.40;;;;;;4888525;29;20045;-70
2023/05/24 11:52:30;;;;;;;10.88;2.67;;;20.10;75.50;;;;;;4888399;29;20100;-70
2023/05/24 11:54:55;;;;;;;10.10;2.60;;;21.30;73.60;;;;;;4889055;29;20084;-71
2023/05/24 11:57:35;;;;;;;8.18;2.45;;;22.60;67.90;;;;;;4888704;29;20219;-71
2023/05/24 12:00:01;;;;;;;11.52;3.30;;;23.70;66.50;;;;;;4907582;29;20048;-71
2023/05/24 12:02:29;;;;;;;7.65;2.63;;;24.80;65.20;;;;;;4892960;29;20063;-70
2023/05/24 12:05:08;;;;;;;7.72;2.30;;;25.60;61.30;;;;;;4889167;29;20255;-69
2023/05/24 12:07:35;;;;;;;8.68;2.53;;;26.10;59.00;;;;;;4905292;29;20036;-72
2023/05/24 12:10:03;;;;;;;6.30;2.47;;;26.10;59.10;;;;;;4913443;29;20033;-74
2023/05/24 12:12:29;;;;;;;8.50;3.38;;;26.50;58.10;;;;;;4903304;29;20041;-70
2023/05/24 12:14:55;;;;;;;7.90;2.58;;;26.60;57.60;;;;;;4903796;29;20037;-71
2023/05/24 12:17:21;;;;;;;10.43;2.65;;;27.00;56.30;;;;;;4894153;29;20040;-70
2023/05/24 12:19:50;;;;;;;7.43;2.15;;;27.00;56.00;;;;;;4892839;29;20275;-70
2023/05/24 12:22:17;;;;;;;7.82;2.65;;;27.40;55.80;;;;;;4891012;29;20358;-73
2023/05/24 12:24:43;;;;;;;9.43;2.63;;;28.30;55.10;;;;;;4892421;29;20085;-71
2023/05/24 12:27:10;;;;;;;9.63;2.38;;;29.60;54.20;;;;;;4891758;29;20021;-72
2023/05/24 12:29:41;;;;;;;6.28;2.65;;;30.10;52.60;;;;;;4892121;29;20054;-70
2023/05/24 12:32:11;;;;;;;7.55;2.60;;;29.20;52.80;;;;;;4892108;29;20089;-70
2023/05/24 12:34:39;;;;;;;7.78;2.40;;;27.80;54.10;;;;;;4899123;29;20028;-69
2023/05/24 12:37:07;;;;;;;9.75;2.70;;;27.30;54.00;;;;;;4892239;29;20096;-69
2023/05/24 12:39:35;;;;;;;12.57;3.08;;;27.60;54.70;;;;;;4891368;29;20092;-73
2023/05/24 12:42:02;;;;;;;6.43;2.33;;;28.80;53.60;;;;;;4891873;29;20318;-70
2023/05/24 12:44:36;;;;;;;8.95;2.42;;;29.60;52.20;;;;;;4891776;29;20044;-71
2023/05/24 12:47:03;;;;;;;7.50;2.40;;;30.00;50.90;;;;;;4892235;29;20100;-70
2023/05/24 12:49:30;;;;;;;8.13;2.70;;;28.80;51.80;;;;;;4891183;29;20057;-71
2023/05/24 12:51:56;;;;;;;8.52;2.20;;;28.60;52.70;;;;;;4891920;29;20342;-69
2023/05/24 12:54:24;;;;;;;8.10;2.75;;;29.40;51.20;;;;;;4891092;29;20037;-70
2023/05/24 12:56:51;;;;;;;8.82;3.10;;;29.90;50.60;;;;;;4891645;29;20027;-71
2023/05/24 12:59:17;;;;;;;6.05;2.03;;;30.60;50.50;;;;;;4906441;29;20044;-71
2023/05/24 13:01:45;;;;;;;6.90;2.10;;;30.10;49.80;;;;;;4908923;29;20045;-70
2023/05/24 13:04:11;;;;;;;6.70;2.22;;;30.20;50.20;;;;;;4909619;29;20033;-71
2023/05/24 13:06:37;;;;;;;9.95;2.10;;;30.60;50.40;;;;;;4910262;29;20032;-70
2023/05/24 13:09:05;;;;;;;9.35;2.10;;;29.90;49.40;;;;;;4909891;29;20266;-70
2023/05/24 13:11:30;;;;;;;8.93;2.60;;;29.40;50.40;;;;;;4888155;29;20516;-72
2023/05/24 13:13:58;;;;;;;7.20;2.13;;;28.60;51.00;;;;;;4891503;29;20097;-70
2023/05/24 13:16:25;;;;;;;7.22;2.38;;;28.90;51.90;;;;;;4890904;29;20052;-71
2023/05/24 13:18:51;;;;;;;6.90;2.35;;;29.00;51.40;;;;;;4891635;29;20036;-71
2023/05/24 13:21:17;;;;;;;10.95;2.45;;;29.00;50.20;;;;;;4890199;29;20040;-71
2023/05/24 13:23:44;;;;;;;5.88;2.47;;;28.40;51.90;;;;;;4891352;29;20032;-71
2023/05/24 13:26:09;;;;;;;13.02;2.60;;;28.10;52.20;;;;;;4891383;29;20097;-73
2023/05/24 13:28:35;;;;;;;10.65;2.75;;;29.00;51.60;;;;;;4891362;29;20322;-73
2023/05/24 13:31:02;;;;;;;7.70;2.28;;;29.60;50.90;;;;;;4890849;29;20112;-72
2023/05/24 13:33:28;;;;;;;9.23;2.67;;;30.30;49.90;;;;;;4893020;29;20029;-71
2023/05/24 13:35:54;;;;;;;6.53;2.65;;;30.30;50.40;;;;;;4895305;29;20207;-72
2023/05/24 13:38:23;;;;;;;7.05;2.30;;;30.80;49.80;;;;;;4890623;29;20033;-71
2023/05/24 13:40:50;;;;;;;10.48;2.60;;;30.40;49.80;;;;;;4891108;29;20037;-72
2023/05/24 13:43:16;;;;;;;7.75;2.38;;;31.10;48.90;;;;;;4890641;29;20029;-72
2023/05/24 13:45:43;;;;;;;6.78;2.38;;;32.10;47.70;;;;;;4891041;29;20096;-73
2023/05/24 13:48:09;;;;;;;7.28;2.55;;;33.10;46.30;;;;;;4891065;29;20330;-73
2023/05/24 13:50:36;;;;;;;5.85;2.25;;;32.40;47.10;;;;;;4890027;29;20065;-71
2023/05/24 13:53:02;;;;;;;4.43;1.50;;;31.70;46.00;;;;;;4890717;29;20067;-71
2023/05/24 13:55:30;;;;;;;5.35;1.58;;;31.50;46.10;;;;;;4890045;29;20040;-70
2023/05/24 13:57:56;;;;;;;;;;;33.00;45.90;;;;;;4895663;29;20028;-71
2023/05/24 14:00:23;;;;;;;6.78;2.15;;;34.30;45.00;;;;;;4908959;29;19982;-72
2023/05/24 14:02:50;;;;;;;5.57;2.00;;;35.00;43.90;;;;;;4908721;29;20052;-71
2023/05/24 14:05:17;;;;;;;9.23;2.40;;;35.30;43.70;;;;;;4892345;29;20045;-72
2023/05/24 14:07:42;;;;;;;7.03;1.87;;;36.00;43.20;;;;;;4908905;29;20043;-71
2023/05/24 14:10:09;;;;;;;7.38;1.80;;;35.80;42.70;;;;;;4892482;29;20028;-71
2023/05/24 14:12:34;;;;;;;5.60;1.60;;;33.80;43.00;;;;;;4895024;29;20223;-71
2023/05/24 14:15:00;;;;;;;5.88;1.50;;;33.40;44.20;;;;;;4890390;29;20033;-70
2023/05/24 14:17:26;;;;;;;8.13;2.00;;;34.40;43.40;;;;;;4873315;29;20256;-71
2023/05/24 14:19:52;;;;;;;6.75;1.90;;;34.70;42.80;;;;;;4890265;29;20080;-71
2023/05/24 14:22:18;;;;;;;4.97;1.48;;;35.60;42.80;;;;;;4889757;29;20108;-71
2023/05/24 14:24:44;;;;;;;6.93;2.00;;;36.20;42.40;;;;;;4890424;29;20041;-70
2023/05/24 14:27:09;;;;;;;5.85;1.77;;;37.00;42.50;;;;;;4890335;29;20037;-71
2023/05/24 14:29:35;;;;;;;6.78;2.10;;;37.00;43.50;;;;;;4889434;29;20045;-72
2023/05/24 14:32:01;;;;;;;7.82;1.85;;;38.00;42.40;;;;;;4890218;29;20060;-71
2023/05/24 14:34:26;;;;;;;7.97;2.10;;;38.20;41.50;;;;;;4896670;29;20052;-72
2023/05/24 14:36:53;;;;;;;6.53;1.75;;;35.60;41.70;;;;;;4890041;29;20045;-73
2023/05/24 14:39:19;;;;;;;5.20;2.20;;;33.30;44.00;;;;;;4889452;29;20033;-73
2023/05/24 14:41:44;;;;;;;7.70;1.77;;;32.40;45.00;;;;;;4890024;29;20048;-70
2023/05/24 14:44:10;;;;;;;6.40;2.15;;;32.50;45.00;;;;;;4889717;29;20045;-70
2023/05/24 14:46:36;;;;;;;6.03;1.90;;;31.30;46.10;;;;;;4872903;29;20099;-72
2023/05/24 14:49:03;;;;;;;5.88;2.63;;;28.70;48.20;;;;;;4889482;29;20192;-71
2023/05/24 14:51:29;;;;;;;12.45;2.13;;;27.10;49.60;;;;;;4888867;29;20064;-70
2023/05/24 14:53:55;;;;;;;5.60;1.98;;;26.80;50.60;;;;;;4889702;29;20303;-72
2023/05/24 14:56:20;;;;;;;5.18;1.88;;;26.60;50.20;;;;;;4889152;29;20323;-72
2023/05/24 14:58:46;;;;;;;6.63;1.88;;;28.00;50.30;;;;;;4901074;29;20036;-70
2023/05/24 15:01:12;;;;;;;7.38;2.17;;;28.10;48.00;;;;;;4907663;29;20028;-74
2023/05/24 15:03:38;;;;;;;8.07;2.25;;;26.90;49.40;;;;;;4907724;29;20069;-70
2023/05/24 15:06:04;;;;;;;7.72;1.75;;;25.10;50.90;;;;;;4891364;29;20024;-69
2023/05/24 15:08:30;;;;;;;4.57;1.90;;;24.40;52.40;;;;;;4907983;29;20032;-72
2023/05/24 15:10:55;;;;;;;9.15;1.80;;;24.00;53.40;;;;;;4907402;29;20266;-70
2023/05/24 15:13:21;;;;;;;10.02;2.00;;;23.90;52.60;;;;;;4888965;29;20044;-71
2023/05/24 15:15:47;;;;;;;9.57;2.10;;;23.40;53.30;;;;;;4889444;29;20299;-71
2023/05/24 15:18:13;;;;;;;9.18;2.10;;;23.00;53.50;;;;;;4888785;29;20088;-71
2023/05/24 15:20:39;;;;;;;6.38;1.95;;;24.20;53.10;;;;;;4872678;29;20037;-73
2023/05/24 15:23:09;;;;;;;6.53;1.90;;;26.50;50.50;;;;;;4889127;29;20104;-71
2023/05/24 15:25:35;;;;;;;5.95;1.95;;;28.80;48.30;;;;;;4888887;29;20081;-70
2023/05/24 15:28:01;;;;;;;7.80;1.85;;;30.30;46.60;;;;;;4889372;29;20044;-70
2023/05/24 15:30:27;;;;;;;5.05;2.10;;;32.20;44.60;;;;;;4888443;29;20244;-71
2023/05/24 15:32:53;;;;;;;6.38;1.63;;;33.30;43.70;;;;;;4889485;29;20079;-70
2023/05/24 15:35:19;;;;;;;5.85;1.98;;;33.80;43.10;;;;;;4905343;29;20024;-73
2023/05/24 15:37:45;;;;;;;8.02;2.03;;;34.90;43.00;;;;;;4893135;29;20248;-72
2023/05/24 15:40:12;;;;;;;6.35;1.80;;;35.60;42.30;;;;;;4889091;29;20037;-71
2023/05/24 15:42:38;;;;;;;6.00;2.10;;;35.20;43.40;;;;;;4888238;29;20048;-75
2023/05/24 15:45:04;;;;;;;6.18;1.80;;;35.60;42.00;;;;;;4872074;29;20868;-70
2023/05/24 15:47:34;;;;;;;8.13;2.55;;;33.90;42.30;;;;;;4888316;29;20252;-69
2023/05/24 15:50:01;;;;;;;8.45;2.03;;;31.70;44.10;;;;;;4888891;29;20036;-71
2023/05/24 15:52:27;;;;;;;6.22;1.80;;;29.90;45.70;;;;;;4888429;29;20029;-73
2023/05/24 15:54:53;;;;;;;7.38;1.80;;;28.30;46.60;;;;;;4887868;29;20033;-70
2023/05/24 15:57:19;;;;;;;5.22;1.65;;;26.60;48.10;;;;;;4872054;29;20033;-71
2023/05/24 15:59:44;;;;;;;9.48;2.35;;;25.60;49.30;;;;;;4890424;29;20136;-73
2023/05/24 16:02:10;;;;;;;5.85;1.80;;;24.80;50.70;;;;;;4907309;29;20068;-73
2023/05/24 16:04:36;;;;;;;6.68;1.77;;;24.10;52.10;;;;;;4903046;29;20148;-72
2023/05/24 16:07:02;;;;;;;8.43;2.47;;;23.60;53.00;;;;;;4906298;29;20048;-71
2023/05/24 16:09:27;;;;;;;6.50;1.70;;;23.20;53.90;;;;;;4906742;29;20035;-73
2023/05/24 16:11:53;;;;;;;5.40;1.90;;;22.90;53.20;;;;;;4899759;29;20025;-74
2023/05/24 16:14:19;;;;;;;6.22;2.22;;;22.50;53.50;;;;;;4871552;29;20036;-74
2023/05/24 16:16:45;;;;;;;5.95;1.98;;;22.10;53.90;;;;;;4884911;29;20064;-70
2023/05/24 16:19:11;;;;;;;5.07;1.92;;;21.80;53.80;;;;;;4888565;29;20029;-70
2023/05/24 16:21:37;;;;;;;6.38;2.10;;;22.10;54.30;;;;;;4888322;29;20045;-73
2023/05/24 16:24:04;;;;;;;5.85;1.80;;;23.40;52.00;;;;;;4888666;29;20255;-73
2023/05/24 16:26:30;;;;;;;5.80;1.55;;;23.40;52.20;;;;;;4889644;29;20045;-72
2023/05/24 16:28:57;;;;;;;6.75;1.83;;;23.20;52.30;;;;;;4868791;29;20103;-72
2023/05/24 16:31:23;;;;;;;7.05;2.15;;;22.70;53.20;;;;;;4889545;29;20062;-73
2023/05/24 16:33:49;;;;;;;7.43;2.08;;;22.10;54.20;;;;;;4899465;29;20033;-72
2023/05/24 16:36:26;;;;;;;6.03;1.85;;;21.60;55.20;;;;;;4907193;29;20033;-71
2023/05/24 16:39:01;;;;;;;8.40;2.23;;;20.90;56.00;;;;;;4896851;29;20037;-71
2023/05/24 16:41:33;;;;;;;7.65;2.00;;;20.40;57.90;;;;;;4891246;29;20036;-73
2023/05/24 16:44:16;;;;;;;5.15;1.73;;;20.20;58.10;;;;;;4913651;29;20025;-71
2023/05/24 16:46:45;;;;;;;8.82;2.08;;;19.90;58.40;;;;;;4901572;29;20048;-74
2023/05/24 16:49:13;;;;;;;7.85;2.05;;;19.50;59.10;;;;;;4907477;29;20040;-73
2023/05/24 16:51:39;;;;;;;6.32;2.15;;;19.20;60.50;;;;;;4888043;29;20119;-74
2023/05/24 16:54:09;;;;;;;5.10;2.17;;;19.00;62.20;;;;;;4872431;29;20039;-73
2023/05/24 16:56:41;;;;;;;4.65;1.90;;;19.10;63.90;;;;;;4901681;29;20033;-73
2023/05/24 16:59:06;;;;;;;5.40;1.80;;;19.20;63.40;;;;;;4905822;29;20049;-72
2023/05/24 17:01:32;;;;;;;6.22;1.55;;;19.10;64.50;;;;;;4909780;29;20313;-74
2023/05/24 17:03:58;;;;;;;5.05;1.92;;;19.00;66.70;;;;;;4893877;29;20029;-73
2023/05/24 17:06:23;;;;;;;7.28;1.90;;;19.00;64.30;;;;;;4909890;29;20333;-73
2023/05/24 17:08:49;;;;;;;7.35;2.05;;;19.80;64.40;;;;;;4910539;29;20032;-71
2023/05/24 17:11:15;;;;;;;9.50;1.95;;;21.50;67.20;;;;;;4906564;29;20052;-74
2023/05/24 17:13:41;;;;;;;7.05;2.10;;;23.10;54.50;;;;;;4891312;29;20032;-71
2023/05/24 17:16:07;;;;;;;7.50;1.90;;;24.00;53.30;;;;;;4875002;29;20048;-73
2023/05/24 17:18:33;;;;;;;6.00;1.40;;;25.00;52.20;;;;;;4891233;29;20063;-71
2023/05/24 17:21:00;;;;;;;6.82;1.77;;;24.40;52.80;;;;;;4891725;29;20285;-70
2023/05/24 17:23:29;;;;;;;5.23;1.67;;;24.00;52.30;;;;;;4891258;29;20040;-70
2023/05/24 17:25:55;;;;;;;6.10;1.60;;;23.00;54.00;;;;;;4891659;29;20068;-71
2023/05/24 17:28:26;;;;;;;6.43;1.83;;;22.00;55.30;;;;;;4897237;29;20310;-70
2023/05/24 17:30:56;;;;;;;6.28;1.58;;;21.30;56.70;;;;;;4910126;29;20345;-72
2023/05/24 17:33:23;;;;;;;4.70;1.95;;;20.50;57.80;;;;;;4907702;29;20116;-71
2023/05/24 17:35:49;;;;;;;8.93;2.30;;;19.70;59.00;;;;;;4891594;29;20032;-72
2023/05/24 17:38:15;;;;;;;5.50;1.63;;;19.00;61.20;;;;;;4891162;29;20056;-72
2023/05/24 17:40:41;;;;;;;5.10;1.85;;;18.60;61.80;;;;;;4890956;29;20327;-72
2023/05/24 17:43:07;;;;;;;5.32;1.63;;;18.40;62.30;;;;;;4890896;29;20021;-72